Time;durP1;ratioP1;P1;durP2;ratioP2;P2;SDS_P1;SDS_P2;PMS_P1;PMS_P2;Temp;Humidity;BMP_temperature;BMP_pressure;BME280_temperature;BME280_humidity;BME280_pressure;Samples;Min_cycle;Max_cycle;Signal;HPM_P1;HPM_P2
2023/07/04 00:01:37;;;;;;;23.00;6.10;;;16.60;76.90;;;;;;5034657;28;20052;-74
2023/07/04 00:04:07;;;;;;;20.23;5.57;;;16.60;77.10;;;;;;5031146;28;20037;-74
2023/07/04 00:06:36;;;;;;;27.02;5.65;;;16.60;77.20;;;;;;5031352;28;20142;-74
2023/07/04 00:09:04;;;;;;;20.70;5.70;;;16.60;77.10;;;;;;5029638;28;20033;-75
2023/07/04 00:11:31;;;;;;;20.25;5.43;;;16.60;77.10;;;;;;5028543;28;20459;-75
2023/07/04 00:13:57;;;;;;;24.13;6.40;;;16.60;77.20;;;;;;5037420;28;20028;-76
2023/07/04 00:16:23;;;;;;;26.10;5.78;;;16.60;77.20;;;;;;5026182;28;20041;-75
2023/07/04 00:18:49;;;;;;;22.42;5.43;;;16.60;77.20;;;;;;5034903;28;20505;-74
2023/07/04 00:21:15;;;;;;;22.65;5.45;;;16.60;77.30;;;;;;5027373;28;20374;-77
2023/07/04 00:23:45;;;;;;;29.20;6.53;;;16.60;77.20;;;;;;5027921;28;20379;-74
2023/07/04 00:26:12;;;;;;;21.23;6.25;;;16.50;77.50;;;;;;5031927;28;20037;-74
2023/07/04 00:28:38;;;;;;;21.77;5.72;;;16.50;78.00;;;;;;5035524;28;20036;-74
2023/07/04 00:31:05;;;;;;;25.17;6.10;;;16.50;78.00;;;;;;5033999;28;20038;-74
2023/07/04 00:33:31;;;;;;;22.08;6.63;;;16.40;78.50;;;;;;5030589;28;20021;-75
2023/07/04 00:36:09;;;;;;;22.25;5.15;;;16.40;78.50;;;;;;5039054;28;20044;-76
2023/07/04 00:38:36;;;;;;;18.30;5.38;;;16.40;78.40;;;;;;5026507;28;20108;-75
2023/07/04 00:41:11;;;;;;;27.02;6.40;;;16.40;78.30;;;;;;5030277;28;20144;-74
2023/07/04 00:44:00;;;;;;;23.05;6.15;;;16.40;78.40;;;;;;5028783;28;20406;-74
2023/07/04 00:46:39;;;;;;;24.33;6.78;;;16.40;78.60;;;;;;5028710;28;20073;-75
2023/07/04 00:49:20;;;;;;;23.77;6.95;;;16.30;78.70;;;;;;5029990;28;20021;-77
2023/07/04 00:52:07;;;;;;;20.38;5.50;;;16.40;78.80;;;;;;5028390;28;20822;-74
2023/07/04 00:54:40;;;;;;;26.17;5.80;;;16.40;78.90;;;;;;5032634;28;20469;-76
2023/07/04 00:57:07;;;;;;;27.45;6.93;;;16.50;78.70;;;;;;5033676;28;20236;-76
2023/07/04 00:59:34;;;;;;;22.38;5.57;;;16.50;78.60;;;;;;5039081;28;20022;-77
2023/07/04 01:02:00;;;;;;;26.92;5.85;;;16.50;78.60;;;;;;5031712;28;20034;-75
2023/07/04 01:04:26;;;;;;;22.75;6.32;;;16.50;78.60;;;;;;5041557;28;20017;-76
2023/07/04 01:07:04;;;;;;;24.15;6.50;;;16.50;78.40;;;;;;5034485;28;20043;-78
2023/07/04 01:09:31;;;;;;;28.77;7.03;;;16.60;78.60;;;;;;5028823;28;20032;-76
2023/07/04 01:11:57;;;;;;;23.13;6.30;;;16.60;78.50;;;;;;5025016;28;20045;-75
2023/07/04 01:14:25;;;;;;;24.75;5.55;;;16.60;78.80;;;;;;5035987;28;20041;-76
2023/07/04 01:16:52;;;;;;;20.75;5.38;;;16.60;78.80;;;;;;5028147;28;20038;-75
2023/07/04 01:19:34;;;;;;;27.75;6.50;;;16.60;78.40;;;;;;5030380;28;20021;-74
2023/07/04 01:22:10;;;;;;;26.13;6.07;;;16.60;78.50;;;;;;5034872;28;20087;-74
2023/07/04 01:24:43;;;;;;;22.48;5.05;;;16.50;78.70;;;;;;5037078;28;20059;-75
2023/07/04 01:27:09;;;;;;;22.95;5.63;;;16.50;78.80;;;;;;5035649;28;20045;-74
2023/07/04 01:29:36;;;;;;;21.80;5.55;;;16.50;78.80;;;;;;5027449;28;20090;-76
2023/07/04 01:32:03;;;;;;;19.75;5.57;;;16.60;78.80;;;;;;5030567;28;20048;-75
2023/07/04 01:34:28;;;;;;;21.05;5.53;;;16.60;78.60;;;;;;5037188;28;20032;-75
2023/07/04 01:36:54;;;;;;;31.10;7.13;;;16.60;78.50;;;;;;5038488;28;20446;-75
2023/07/04 01:39:21;;;;;;;28.20;6.32;;;16.60;78.60;;;;;;5027823;28;20138;-74
2023/07/04 01:41:47;;;;;;;25.65;6.50;;;16.60;78.80;;;;;;5019575;28;20486;-76
2023/07/04 01:44:16;;;;;;;23.92;6.65;;;16.50;78.90;;;;;;5032407;28;20397;-75
2023/07/04 01:46:42;;;;;;;22.00;6.40;;;16.60;78.90;;;;;;5032150;28;20045;-74
2023/07/04 01:49:09;;;;;;;29.90;6.45;;;16.50;78.90;;;;;;5033420;28;20029;-77
2023/07/04 01:51:37;;;;;;;22.60;5.88;;;16.50;79.00;;;;;;5037284;28;20021;-77
2023/07/04 01:54:04;;;;;;;26.52;7.10;;;16.50;79.00;;;;;;5041416;28;20043;-74
2023/07/04 01:56:31;;;;;;;27.92;6.30;;;16.50;79.10;;;;;;5026724;28;20115;-74
2023/07/04 01:58:57;;;;;;;25.02;6.18;;;16.50;78.90;;;;;;5030828;28;20536;-75
2023/07/04 02:01:24;;;;;;;22.73;5.57;;;16.50;78.90;;;;;;5028778;28;20033;-77
2023/07/04 02:03:51;;;;;;;28.50;7.20;;;16.50;78.90;;;;;;5029643;28;20044;-75
2023/07/04 02:06:17;;;;;;;25.33;6.70;;;16.40;79.00;;;;;;5033469;28;20486;-76
2023/07/04 02:08:43;;;;;;;19.33;5.60;;;16.40;79.20;;;;;;5032460;28;20048;-74
2023/07/04 02:11:09;;;;;;;25.88;6.32;;;16.30;79.30;;;;;;5026006;28;20033;-75
2023/07/04 02:13:35;;;;;;;25.75;7.22;;;16.30;79.30;;;;;;5025343;28;20080;-78
2023/07/04 02:16:00;;;;;;;20.02;6.22;;;16.30;79.40;;;;;;5024410;28;20570;-75
2023/07/04 02:18:26;;;;;;;22.67;5.80;;;16.40;79.20;;;;;;5028852;28;20768;-75
2023/07/04 02:20:52;;;;;;;20.88;5.63;;;16.40;79.20;;;;;;5026384;28;20508;-76
2023/07/04 02:23:18;;;;;;;28.67;7.47;;;16.30;79.10;;;;;;5027393;28;20513;-74
2023/07/04 02:25:43;;;;;;;23.90;5.95;;;16.30;79.20;;;;;;5030644;28;20103;-74
2023/07/04 02:28:10;;;;;;;20.08;6.43;;;16.30;79.30;;;;;;5034493;28;20032;-75
2023/07/04 02:30:36;;;;;;;27.55;6.72;;;16.20;79.70;;;;;;5028843;28;20557;-74
2023/07/04 02:33:02;;;;;;;21.73;6.68;;;16.10;79.70;;;;;;5031905;28;20112;-75
2023/07/04 02:35:29;;;;;;;26.65;6.50;;;16.10;79.60;;;;;;5027097;28;20116;-74
2023/07/04 02:37:55;;;;;;;27.23;7.57;;;16.10;80.00;;;;;;5031149;28;20156;-75
2023/07/04 02:40:21;;;;;;;24.48;6.80;;;16.00;80.10;;;;;;5032011;28;20464;-74
2023/07/04 02:42:46;;;;;;;21.85;6.40;;;16.00;80.30;;;;;;5036307;28;20469;-74
2023/07/04 02:45:12;;;;;;;25.13;6.07;;;16.00;80.40;;;;;;5032837;28;20056;-74
2023/07/04 02:47:38;;;;;;;27.80;6.63;;;15.90;80.70;;;;;;5030518;28;20033;-74
2023/07/04 02:50:04;;;;;;;31.73;6.78;;;15.90;80.90;;;;;;5034461;28;20497;-76
2023/07/04 02:52:30;;;;;;;21.05;7.28;;;15.90;80.90;;;;;;5028974;28;20017;-74
2023/07/04 02:54:56;;;;;;;23.35;6.45;;;15.90;80.90;;;;;;5036236;28;20075;-73
2023/07/04 02:57:22;;;;;;;23.10;6.55;;;15.80;81.00;;;;;;5034909;28;20029;-75
2023/07/04 02:59:48;;;;;;;31.52;6.90;;;15.90;81.20;;;;;;5028585;28;20470;-74
2023/07/04 03:02:14;;;;;;;24.10;6.57;;;15.80;81.20;;;;;;5028782;28;20048;-74
2023/07/04 03:04:39;;;;;;;21.23;5.88;;;15.80;81.20;;;;;;5038033;28;20025;-74
2023/07/04 03:07:06;;;;;;;24.05;6.82;;;15.70;81.50;;;;;;5031796;28;20036;-75
2023/07/04 03:09:32;;;;;;;29.80;7.40;;;15.70;81.60;;;;;;5036293;28;20017;-74
2023/07/04 03:11:58;;;;;;;30.40;6.68;;;15.60;81.70;;;;;;5033561;28;20461;-74
2023/07/04 03:14:24;;;;;;;21.23;6.18;;;15.60;81.90;;;;;;5034158;28;20553;-74
2023/07/04 03:16:50;;;;;;;26.52;6.88;;;15.50;82.10;;;;;;5034190;28;20037;-76
2023/07/04 03:19:16;;;;;;;29.25;6.82;;;15.60;82.10;;;;;;5027880;28;20056;-75
2023/07/04 03:21:42;;;;;;;24.90;6.25;;;15.50;82.30;;;;;;5031650;28;20033;-74
2023/07/04 03:24:07;;;;;;;27.85;7.22;;;15.50;82.30;;;;;;5037111;28;20085;-76
2023/07/04 03:26:36;;;;;;;26.52;6.85;;;15.50;82.40;;;;;;5032210;28;20099;-75
2023/07/04 03:29:02;;;;;;;23.75;6.38;;;15.50;82.30;;;;;;5030776;28;20044;-75
2023/07/04 03:31:27;;;;;;;23.63;6.03;;;15.40;82.20;;;;;;5027522;28;20514;-74
2023/07/04 03:33:53;;;;;;;26.45;6.65;;;15.40;82.50;;;;;;5025588;28;20678;-74
2023/07/04 03:36:20;;;;;;;25.58;5.57;;;15.40;82.50;;;;;;5026610;28;20041;-75
2023/07/04 03:38:45;;;;;;;27.50;7.05;;;15.30;82.50;;;;;;5020199;28;20022;-75
2023/07/04 03:41:11;;;;;;;25.00;6.30;;;15.30;82.40;;;;;;5029529;28;20068;-75
2023/07/04 03:43:37;;;;;;;29.20;6.93;;;15.30;82.30;;;;;;5030070;28;20021;-75
2023/07/04 03:46:04;;;;;;;23.38;6.72;;;15.40;82.30;;;;;;5026387;28;20060;-75
2023/07/04 03:48:30;;;;;;;27.83;5.93;;;15.40;82.10;;;;;;5030174;28;20063;-76
2023/07/04 03:50:56;;;;;;;25.98;6.28;;;15.40;82.00;;;;;;5019207;28;20030;-74
2023/07/04 03:53:22;;;;;;;26.13;6.40;;;15.30;81.90;;;;;;5033335;28;20025;-74
2023/07/04 03:55:51;;;;;;;24.92;6.30;;;15.30;81.80;;;;;;5036443;28;20426;-76
2023/07/04 03:58:22;;;;;;;26.98;7.22;;;15.30;81.80;;;;;;5033728;28;20033;-75
2023/07/04 04:00:50;;;;;;;28.15;6.45;;;15.30;81.50;;;;;;5031234;28;20108;-75
2023/07/04 04:03:16;;;;;;;21.27;5.65;;;15.30;81.50;;;;;;5030720;28;20029;-75
2023/07/04 04:05:43;;;;;;;21.40;5.53;;;15.30;81.30;;;;;;5026457;28;20544;-74
2023/07/04 04:08:08;;;;;;;23.55;5.38;;;15.40;81.10;;;;;;5026497;28;20038;-76
2023/07/04 04:10:34;;;;;;;22.35;5.68;;;15.30;80.80;;;;;;5036652;28;20067;-77
2023/07/04 04:13:00;;;;;;;31.48;6.13;;;15.40;80.50;;;;;;5031945;28;20025;-74
2023/07/04 04:15:27;;;;;;;26.23;5.63;;;15.40;80.30;;;;;;5027740;28;20050;-74
2023/07/04 04:17:53;;;;;;;21.38;5.85;;;15.40;80.10;;;;;;5024979;28;20013;-74
2023/07/04 04:20:18;;;;;;;21.98;5.50;;;15.50;80.00;;;;;;5026784;28;20053;-75
2023/07/04 04:22:47;;;;;;;23.65;6.03;;;15.50;79.80;;;;;;5035852;28;20455;-74
2023/07/04 04:25:14;;;;;;;19.80;5.72;;;15.50;79.40;;;;;;5033762;28;20055;-74
2023/07/04 04:27:40;;;;;;;22.52;5.50;;;15.60;79.10;;;;;;5028286;28;20021;-74
2023/07/04 04:30:09;;;;;;;21.02;5.57;;;15.60;78.90;;;;;;5032664;28;20039;-76
2023/07/04 04:32:35;;;;;;;19.02;5.22;;;15.70;78.30;;;;;;5035387;28;20017;-78
2023/07/04 04:35:03;;;;;;;19.58;5.70;;;15.90;77.90;;;;;;5028186;28;20541;-74
2023/07/04 04:37:29;;;;;;;18.63;5.13;;;15.90;77.60;;;;;;5026867;28;20079;-74
2023/07/04 04:39:54;;;;;;;23.55;5.75;;;15.90;77.40;;;;;;5020962;28;20442;-74
2023/07/04 04:42:23;;;;;;;24.13;5.97;;;16.00;77.20;;;;;;5030488;28;20406;-74
2023/07/04 04:44:53;;;;;;;16.52;4.60;;;16.10;76.80;;;;;;5024920;28;20494;-74
2023/07/04 04:47:22;;;;;;;21.10;4.82;;;16.10;76.90;;;;;;5028412;28;20067;-74
2023/07/04 04:49:48;;;;;;;17.23;4.40;;;16.10;76.90;;;;;;5032408;28;20492;-75
2023/07/04 04:52:14;;;;;;;18.70;4.72;;;16.20;76.50;;;;;;5030861;28;20029;-76
2023/07/04 04:54:40;;;;;;;26.40;6.10;;;16.20;76.50;;;;;;5031315;28;20024;-75
2023/07/04 04:57:06;;;;;;;26.75;6.82;;;16.20;76.90;;;;;;5026527;28;21814;-74
2023/07/04 04:59:31;;;;;;;23.50;6.70;;;16.30;77.00;;;;;;5031638;28;20080;-74
2023/07/04 05:01:57;;;;;;;25.58;6.53;;;16.50;76.80;;;;;;5030229;28;20033;-74
2023/07/04 05:04:23;;;;;;;21.23;6.38;;;16.50;76.70;;;;;;5021910;28;20080;-74
2023/07/04 05:06:49;;;;;;;24.70;6.13;;;16.50;77.00;;;;;;5028729;28;20077;-76
2023/07/04 05:09:15;;;;;;;20.50;5.53;;;16.50;77.50;;;;;;5025553;28;20056;-74
2023/07/04 05:11:40;;;;;;;24.38;6.22;;;16.70;77.10;;;;;;5029017;28;20117;-75
2023/07/04 05:14:08;;;;;;;18.83;5.63;;;16.70;76.90;;;;;;5036857;28;20054;-75
2023/07/04 05:16:34;;;;;;;24.77;6.32;;;17.30;76.10;;;;;;5032768;28;20072;-74
2023/07/04 05:19:00;;;;;;;22.80;6.43;;;18.10;73.60;;;;;;5021293;28;20470;-74
2023/07/04 05:21:25;;;;;;;25.40;6.72;;;19.10;69.90;;;;;;5024156;28;20046;-75
2023/07/04 05:23:52;;;;;;;23.23;5.65;;;20.10;66.20;;;;;;5027779;28;20393;-74
2023/07/04 05:26:19;;;;;;;23.85;5.35;;;20.90;64.10;;;;;;5031922;28;20146;-74
2023/07/04 05:28:45;;;;;;;25.73;6.20;;;21.10;62.20;;;;;;5033896;28;20025;-74
2023/07/04 05:31:14;;;;;;;22.55;6.20;;;21.00;62.70;;;;;;5028314;28;20043;-74
2023/07/04 05:33:40;;;;;;;21.27;5.82;;;21.40;61.50;;;;;;5030901;28;20021;-74
2023/07/04 05:36:15;;;;;;;15.70;5.30;;;21.20;61.00;;;;;;5032766;28;20042;-74
2023/07/04 05:38:42;;;;;;;16.15;4.90;;;21.60;59.00;;;;;;5027152;28;20031;-74
2023/07/04 05:41:10;;;;;;;20.70;5.40;;;21.30;60.40;;;;;;5030500;28;20080;-74
2023/07/04 05:43:36;;;;;;;23.92;6.10;;;21.80;59.10;;;;;;5033351;28;20377;-75
2023/07/04 05:46:03;;;;;;;17.35;5.35;;;22.20;57.40;;;;;;5029295;28;20420;-74
2023/07/04 05:48:29;;;;;;;18.95;5.13;;;22.20;57.50;;;;;;5029025;28;20048;-74
2023/07/04 05:50:59;;;;;;;19.92;5.47;;;22.20;57.40;;;;;;5031414;28;20470;-75
2023/07/04 05:53:27;;;;;;;20.77;5.38;;;22.40;57.60;;;;;;5030234;28;20083;-74
2023/07/04 05:56:05;;;;;;;20.27;6.00;;;21.90;58.50;;;;;;5039926;28;20140;-74
2023/07/04 05:58:31;;;;;;;18.77;6.13;;;21.60;59.50;;;;;;5031570;28;20490;-74
2023/07/04 06:01:02;;;;;;;20.95;5.70;;;20.90;61.70;;;;;;5030064;28;20116;-74
2023/07/04 06:03:28;;;;;;;23.95;5.57;;;20.30;63.10;;;;;;5026307;28;20022;-74
2023/07/04 06:05:54;;;;;;;23.42;5.38;;;20.00;64.60;;;;;;5035927;28;20363;-74
2023/07/04 06:08:19;;;;;;;22.67;4.97;;;19.80;64.90;;;;;;5028790;28;20048;-74
2023/07/04 06:10:45;;;;;;;20.00;5.00;;;19.60;65.70;;;;;;5032311;28;20052;-75
2023/07/04 06:13:11;;;;;;;19.58;5.38;;;19.10;66.50;;;;;;5030654;28;20290;-76
2023/07/04 06:15:40;;;;;;;22.73;5.68;;;18.60;67.90;;;;;;5029529;28;20041;-75
2023/07/04 06:18:06;;;;;;;19.45;4.53;;;18.60;68.00;;;;;;5035121;28;20021;-75
2023/07/04 06:20:32;;;;;;;18.45;4.75;;;18.40;67.90;;;;;;5033898;28;20037;-75
2023/07/04 06:22:57;;;;;;;19.58;5.40;;;18.40;68.70;;;;;;5026230;28;20394;-75
2023/07/04 06:25:23;;;;;;;19.50;5.00;;;18.50;67.70;;;;;;5026606;28;20132;-75
2023/07/04 06:27:49;;;;;;;19.08;5.18;;;18.70;68.60;;;;;;5032363;28;20354;-75
2023/07/04 06:30:14;;;;;;;16.75;4.20;;;19.10;66.90;;;;;;5036773;28;20102;-75
2023/07/04 06:32:40;;;;;;;14.90;4.25;;;19.10;65.30;;;;;;5035671;28;20040;-75
2023/07/04 06:35:06;;;;;;;21.33;4.53;;;19.00;65.70;;;;;;5034993;28;20036;-75
2023/07/04 06:37:32;;;;;;;22.55;4.88;;;19.00;66.10;;;;;;5028585;28;20718;-75
2023/07/04 06:39:57;;;;;;;16.08;4.45;;;19.00;66.40;;;;;;5032648;28;20044;-75
2023/07/04 06:42:23;;;;;;;20.40;5.22;;;19.10;66.70;;;;;;5029184;28;20025;-74
2023/07/04 06:44:48;;;;;;;18.90;4.80;;;19.00;66.90;;;;;;5032067;28;20037;-75
2023/07/04 06:47:14;;;;;;;17.52;4.22;;;19.00;67.10;;;;;;5027427;28;20033;-75
2023/07/04 06:49:40;;;;;;;18.20;4.32;;;18.90;66.10;;;;;;5027009;28;20076;-75
2023/07/04 06:52:06;;;;;;;19.55;4.88;;;19.00;66.80;;;;;;5028664;28;20069;-76
2023/07/04 06:54:31;;;;;;;16.17;4.10;;;18.80;67.10;;;;;;5040078;28;20025;-75
2023/07/04 06:56:57;;;;;;;17.55;4.93;;;18.90;67.70;;;;;;5030937;28;20056;-75
2023/07/04 06:59:23;;;;;;;23.38;4.93;;;19.00;67.90;;;;;;5030798;28;20470;-75
2023/07/04 07:01:48;;;;;;;20.60;5.32;;;19.10;67.10;;;;;;5034659;28;20064;-77
2023/07/04 07:04:16;;;;;;;19.90;4.68;;;19.00;67.90;;;;;;5036725;28;20014;-75
2023/07/04 07:06:41;;;;;;;19.77;4.35;;;19.20;67.50;;;;;;5031062;28;20064;-75
2023/07/04 07:09:08;;;;;;;21.02;5.30;;;19.10;66.30;;;;;;5019084;28;20463;-75
2023/07/04 07:11:34;;;;;;;16.83;5.20;;;19.10;66.50;;;;;;5024563;28;20053;-75
2023/07/04 07:14:00;;;;;;;16.75;4.97;;;19.30;64.30;;;;;;5025323;28;20052;-75
2023/07/04 07:16:26;;;;;;;15.68;4.18;;;19.30;64.60;;;;;;5023542;28;20202;-75
2023/07/04 07:18:54;;;;;;;16.98;4.40;;;19.50;64.50;;;;;;5017702;28;20132;-75
2023/07/04 07:21:22;;;;;;;16.65;4.70;;;19.60;64.30;;;;;;5029779;28;20542;-75
2023/07/04 07:23:48;;;;;;;18.60;5.63;;;19.60;64.30;;;;;;5028470;28;20069;-75
2023/07/04 07:26:17;;;;;;;21.75;5.47;;;19.50;64.30;;;;;;5033436;28;20033;-76
2023/07/04 07:28:43;;;;;;;17.17;4.40;;;19.60;64.90;;;;;;5028769;28;20551;-75
2023/07/04 07:31:14;;;;;;;14.88;4.43;;;20.00;61.10;;;;;;5030444;28;20044;-75
2023/07/04 07:33:42;;;;;;;13.07;3.90;;;20.20;60.90;;;;;;5034819;28;20017;-75
2023/07/04 07:36:16;;;;;;;15.00;4.60;;;20.20;61.00;;;;;;5034606;28;20029;-75
2023/07/04 07:38:43;;;;;;;14.60;4.38;;;20.10;61.10;;;;;;5027751;28;20025;-75
2023/07/04 07:41:08;;;;;;;17.05;4.63;;;20.10;58.70;;;;;;5026692;28;20063;-75
2023/07/04 07:43:37;;;;;;;19.30;4.15;;;19.90;60.50;;;;;;5028304;28;20061;-76
2023/07/04 07:46:06;;;;;;;15.73;3.88;;;19.90;61.00;;;;;;5023165;28;20128;-75
2023/07/04 07:48:32;;;;;;;14.55;4.57;;;19.90;60.80;;;;;;5034392;28;20100;-75
2023/07/04 07:50:58;;;;;;;21.73;4.57;;;19.70;61.20;;;;;;5033093;28;20127;-75
2023/07/04 07:53:23;;;;;;;15.57;4.47;;;19.70;60.70;;;;;;5034587;28;20098;-75
2023/07/04 07:55:49;;;;;;;14.82;4.47;;;19.60;61.70;;;;;;5031271;28;20749;-74
2023/07/04 07:58:15;;;;;;;14.98;4.18;;;19.90;61.80;;;;;;5030036;28;20057;-74
2023/07/04 08:00:40;;;;;;;23.52;5.72;;;20.10;61.00;;;;;;5033004;28;20034;-73
2023/07/04 08:03:06;;;;;;;11.55;4.45;;;20.20;60.60;;;;;;5038619;28;20056;-75
2023/07/04 08:05:38;;;;;;;14.73;4.07;;;20.30;61.60;;;;;;5029327;28;20033;-74
2023/07/04 08:08:03;;;;;;;12.20;4.28;;;20.30;59.80;;;;;;5031344;28;20370;-74
2023/07/04 08:10:33;;;;;;;15.68;4.55;;;20.60;59.40;;;;;;5036795;28;20034;-74
2023/07/04 08:12:59;;;;;;;16.33;4.18;;;20.70;59.20;;;;;;5029828;28;20433;-74
2023/07/04 08:15:24;;;;;;;20.45;4.35;;;20.60;58.60;;;;;;5028830;28;20136;-74
2023/07/04 08:17:50;;;;;;;16.10;4.18;;;20.70;59.50;;;;;;5034028;28;20109;-74
2023/07/04 08:20:16;;;;;;;14.77;4.40;;;21.00;58.40;;;;;;5035177;28;20049;-74
2023/07/04 08:22:41;;;;;;;18.75;4.80;;;21.40;57.30;;;;;;5037333;28;20454;-74
2023/07/04 08:25:07;;;;;;;19.30;4.38;;;21.50;55.70;;;;;;5033078;28;20467;-74
2023/07/04 08:27:33;;;;;;;15.88;4.30;;;21.40;55.10;;;;;;5031849;28;20025;-74
2023/07/04 08:29:59;;;;;;;14.35;3.70;;;21.60;54.30;;;;;;5033772;28;20029;-74
2023/07/04 08:32:24;;;;;;;15.10;3.75;;;21.80;55.60;;;;;;5033395;28;20036;-74
2023/07/04 08:34:50;;;;;;;13.07;4.20;;;22.10;54.50;;;;;;5042562;28;20513;-75
2023/07/04 08:37:17;;;;;;;14.82;4.13;;;21.80;53.60;;;;;;5035921;28;20060;-75
2023/07/04 08:39:46;;;;;;;15.75;4.50;;;21.30;55.80;;;;;;5028146;28;20112;-74
2023/07/04 08:42:14;;;;;;;12.60;3.97;;;21.00;57.90;;;;;;5029156;28;20034;-75
2023/07/04 08:44:47;;;;;;;17.38;4.45;;;21.30;57.60;;;;;;5038080;28;20077;-75
2023/07/04 08:47:16;;;;;;;19.92;4.88;;;21.30;57.10;;;;;;5032151;28;20049;-75
2023/07/04 08:49:49;;;;;;;18.63;4.97;;;21.50;57.40;;;;;;5039927;28;20057;-75
2023/07/04 08:52:24;;;;;;;14.00;4.10;;;21.60;56.90;;;;;;5036136;28;20060;-76
2023/07/04 08:54:52;;;;;;;11.35;3.95;;;21.40;57.10;;;;;;5035517;28;20338;-75
2023/07/04 08:57:23;;;;;;;12.93;4.28;;;21.40;57.20;;;;;;5035372;28;20192;-75
2023/07/04 08:59:56;;;;;;;14.88;4.25;;;21.60;56.30;;;;;;5027243;28;20140;-75
2023/07/04 09:02:42;;;;;;;17.35;4.85;;;21.60;57.10;;;;;;5026754;28;20034;-74
2023/07/04 09:05:29;;;;;;;14.80;4.20;;;22.00;56.00;;;;;;5030423;28;20021;-76
2023/07/04 09:08:08;;;;;;;15.18;4.80;;;22.00;54.90;;;;;;5030494;28;20036;-74
2023/07/04 09:10:40;;;;;;;14.75;4.97;;;21.70;55.30;;;;;;5027891;28;20096;-75
2023/07/04 09:13:11;;;;;;;17.48;4.45;;;21.80;55.00;;;;;;5042987;28;20033;-76
2023/07/04 09:15:40;;;;;;;16.40;4.60;;;21.80;55.90;;;;;;5028273;28;20545;-74
2023/07/04 09:18:08;;;;;;;16.50;5.25;;;21.80;55.10;;;;;;5033229;28;20041;-76
2023/07/04 09:20:43;;;;;;;17.08;4.78;;;22.00;55.10;;;;;;5031233;28;20049;-75
2023/07/04 09:23:15;;;;;;;15.82;4.88;;;22.10;54.90;;;;;;5034274;28;20033;-75
2023/07/04 09:25:40;;;;;;;17.13;5.57;;;22.20;54.80;;;;;;5029441;28;20025;-75
2023/07/04 09:28:07;;;;;;;15.77;5.78;;;22.20;55.30;;;;;;5035178;28;20043;-76
2023/07/04 09:30:33;;;;;;;15.98;5.05;;;22.00;55.90;;;;;;5037466;28;20044;-76
2023/07/04 09:32:59;;;;;;;15.80;4.60;;;21.80;56.20;;;;;;5033467;28;20037;-76
2023/07/04 09:35:24;;;;;;;18.67;5.25;;;21.80;57.00;;;;;;5033868;28;20461;-76
2023/07/04 09:37:59;;;;;;;11.32;4.18;;;22.10;56.90;;;;;;5035229;28;20120;-76
2023/07/04 09:40:47;;;;;;;14.27;4.95;;;22.40;55.80;;;;;;5038329;28;20065;-74
2023/07/04 09:43:35;;;;;;;11.60;4.47;;;22.50;55.50;;;;;;5032413;28;20484;-75
2023/07/04 09:46:19;;;;;;;16.02;5.32;;;22.70;54.90;;;;;;5028949;28;20113;-75
2023/07/04 09:48:44;;;;;;;19.65;5.13;;;23.00;54.20;;;;;;5022906;28;20017;-75
2023/07/04 09:51:26;;;;;;;15.90;5.25;;;23.10;53.40;;;;;;5024487;28;20080;-75
2023/07/04 09:54:13;;;;;;;15.60;5.13;;;23.10;53.00;;;;;;5025440;28;20429;-74
2023/07/04 09:56:40;;;;;;;15.57;5.18;;;22.90;52.90;;;;;;5035226;28;20041;-75
2023/07/04 09:59:16;;;;;;;16.63;5.75;;;22.80;53.10;;;;;;5034322;28;20040;-76
2023/07/04 10:01:44;;;;;;;18.27;5.45;;;22.70;53.00;;;;;;5025453;28;20333;-74
2023/07/04 10:04:12;;;;;;;14.75;5.00;;;22.70;52.70;;;;;;5029734;28;20026;-75
2023/07/04 10:06:38;;;;;;;13.75;4.72;;;22.90;52.60;;;;;;5028196;28;20032;-75
2023/07/04 10:09:15;;;;;;;15.88;5.38;;;23.00;51.80;;;;;;5029333;28;20484;-75
2023/07/04 10:11:41;;;;;;;15.30;5.47;;;23.00;51.40;;;;;;5032573;28;20489;-75
2023/07/04 10:14:08;;;;;;;15.63;5.30;;;23.20;51.50;;;;;;5037126;28;20041;-76
2023/07/04 10:16:35;;;;;;;15.23;5.00;;;23.20;49.80;;;;;;5034816;28;20417;-75
2023/07/04 10:19:12;;;;;;;12.43;4.90;;;23.40;51.20;;;;;;5027992;28;20075;-75
2023/07/04 10:21:46;;;;;;;13.30;4.85;;;23.20;51.10;;;;;;5029480;28;20083;-74
2023/07/04 10:24:17;;;;;;;12.68;4.30;;;23.20;50.80;;;;;;5028232;28;20167;-75
2023/07/04 10:26:48;;;;;;;12.13;4.38;;;23.50;50.10;;;;;;5033281;28;20037;-74
2023/07/04 10:29:20;;;;;;;14.60;4.35;;;23.60;49.00;;;;;;5030981;28;20025;-74
2023/07/04 10:31:46;;;;;;;10.90;5.00;;;23.80;48.50;;;;;;5032726;28;20034;-74
2023/07/04 10:34:18;;;;;;;13.23;4.90;;;24.10;46.10;;;;;;5037441;28;20494;-75
2023/07/04 10:36:46;;;;;;;13.90;4.43;;;23.90;45.70;;;;;;5030099;28;20120;-74
2023/07/04 10:39:16;;;;;;;14.50;4.68;;;24.10;45.20;;;;;;5027796;28;20600;-74
2023/07/04 10:41:45;;;;;;;13.20;4.72;;;24.10;45.10;;;;;;5033473;28;20036;-75
2023/07/04 10:44:19;;;;;;;10.52;4.28;;;24.10;45.70;;;;;;5025783;28;20025;-75
2023/07/04 10:46:48;;;;;;;;;;;24.30;44.10;;;;;;5023690;28;20033;-75
2023/07/04 10:49:20;;;;;;;10.45;4.47;;;24.20;43.70;;;;;;5035785;28;19912;-75
2023/07/04 10:51:51;;;;;;;10.75;4.35;;;24.30;43.40;;;;;;5021018;28;20128;-74
2023/07/04 10:54:19;;;;;;;12.27;4.63;;;24.00;45.10;;;;;;5036209;28;20025;-75
2023/07/04 10:56:51;;;;;;;11.98;4.25;;;23.90;46.20;;;;;;5039277;28;20047;-76
2023/07/04 10:59:27;;;;;;;15.15;5.43;;;24.20;45.90;;;;;;5023906;28;20546;-75
2023/07/04 11:02:03;;;;;;;10.60;4.43;;;24.20;45.00;;;;;;5028581;28;20037;-75
2023/07/04 11:04:33;;;;;;;12.40;4.80;;;24.30;45.40;;;;;;5025423;28;20097;-75
2023/07/04 11:07:06;;;;;;;12.10;4.68;;;24.70;44.50;;;;;;5028950;28;20104;-74
2023/07/04 11:09:42;;;;;;;14.23;4.53;;;24.80;45.40;;;;;;5033871;28;20029;-75
2023/07/04 11:12:15;;;;;;;14.95;5.03;;;25.00;44.00;;;;;;5028818;28;20273;-75
2023/07/04 11:14:42;;;;;;;14.98;4.50;;;25.00;44.10;;;;;;5038845;28;20052;-75
2023/07/04 11:17:17;;;;;;;12.27;4.93;;;24.80;44.30;;;;;;5028354;28;20091;-75
2023/07/04 11:20:21;;;;;;;13.00;4.70;;;25.00;44.90;;;;;;5030239;28;20065;-75
2023/07/04 11:22:50;;;;;;;11.43;4.90;;;25.00;44.70;;;;;;5025231;28;20052;-74
2023/07/04 11:25:27;;;;;;;10.23;4.65;;;24.90;43.90;;;;;;5032847;28;20052;-75
2023/07/04 11:28:17;;;;;;;15.00;5.38;;;24.60;44.80;;;;;;5027572;28;20486;-75
2023/07/04 11:30:45;;;;;;;11.48;5.00;;;24.70;44.40;;;;;;5027310;28;20048;-74
2023/07/04 11:33:33;;;;;;;12.48;5.07;;;25.10;44.50;;;;;;5028069;28;20060;-74
2023/07/04 11:36:03;;;;;;;12.93;4.78;;;25.30;42.70;;;;;;5033376;28;20608;-74
2023/07/04 11:38:30;;;;;;;10.52;4.53;;;25.10;43.60;;;;;;5034192;28;20064;-75
2023/07/04 11:40:57;;;;;;;14.00;5.05;;;24.70;43.90;;;;;;5035873;28;20130;-75
2023/07/04 11:43:34;;;;;;;14.18;4.70;;;24.80;44.10;;;;;;5028034;28;20036;-75
2023/07/04 11:46:02;;;;;;;14.25;5.20;;;25.40;43.80;;;;;;5033190;28;20063;-75
2023/07/04 11:48:32;;;;;;;11.23;5.25;;;25.60;41.70;;;;;;5031737;28;20060;-75
2023/07/04 11:51:06;;;;;;;10.10;4.50;;;25.50;41.30;;;;;;5029515;28;20120;-75
2023/07/04 11:53:43;;;;;;;9.48;4.10;;;25.50;41.60;;;;;;5035435;28;20037;-75
2023/07/04 11:56:26;;;;;;;12.65;4.82;;;25.40;41.80;;;;;;5029635;28;20037;-75
2023/07/04 11:59:10;;;;;;;12.20;4.88;;;25.00;42.70;;;;;;5026360;28;20132;-75
2023/07/04 12:01:51;;;;;;;;;;;25.10;42.70;;;;;;5028966;28;20076;-75
2023/07/04 12:04:22;;;;;;;12.70;4.55;;;25.20;43.00;;;;;;5029420;28;19971;-75
2023/07/04 12:07:04;;;;;;;11.63;4.65;;;25.60;42.10;;;;;;5037353;28;20041;-75
2023/07/04 12:09:48;;;;;;;11.38;4.63;;;25.70;41.90;;;;;;5021637;28;20446;-75
2023/07/04 12:12:28;;;;;;;12.00;4.82;;;25.50;42.10;;;;;;5026283;28;20123;-76
2023/07/04 12:15:06;;;;;;;11.20;4.63;;;25.50;42.50;;;;;;5034392;28;20053;-76
2023/07/04 12:17:31;;;;;;;11.32;4.93;;;25.60;42.40;;;;;;5029734;28;20053;-75
2023/07/04 12:20:03;;;;;;;11.43;4.97;;;25.70;41.70;;;;;;5024628;28;20025;-75
2023/07/04 12:22:29;;;;;;;11.27;4.78;;;25.60;42.40;;;;;;5035507;28;20025;-75
2023/07/04 12:25:06;;;;;;;14.65;4.80;;;25.60;42.20;;;;;;5039851;28;20029;-75
2023/07/04 12:27:32;;;;;;;9.50;4.28;;;25.70;42.50;;;;;;5028463;28;20037;-75
2023/07/04 12:29:59;;;;;;;12.30;5.00;;;26.00;41.60;;;;;;5026454;28;20109;-75
2023/07/04 12:32:24;;;;;;;14.93;5.32;;;26.10;41.70;;;;;;5029939;28;20383;-75
2023/07/04 12:34:53;;;;;;;11.43;4.88;;;26.10;41.10;;;;;;5035146;28;20395;-75
2023/07/04 12:37:19;;;;;;;13.52;5.00;;;26.00;42.10;;;;;;5027940;28;20048;-75
2023/07/04 12:39:49;;;;;;;12.35;4.95;;;25.60;42.10;;;;;;5023472;28;20030;-76
2023/07/04 12:42:25;;;;;;;10.77;4.78;;;25.50;41.90;;;;;;5026535;28;20038;-75
2023/07/04 12:44:51;;;;;;;9.38;4.80;;;25.30;42.70;;;;;;5027849;28;20040;-75
2023/07/04 12:47:23;;;;;;;15.43;5.32;;;25.50;42.50;;;;;;5024263;28;20045;-75